createdAt,value
2018-08-25T00:01:47.614Z,53.86
2018-08-25T00:04:15.518Z,53.47
2018-08-25T00:06:43.796Z,53.49
2018-08-25T00:09:12.271Z,53.43
2018-08-25T00:11:40.497Z,54.00
2018-08-25T00:14:08.701Z,53.92
2018-08-25T00:16:37.042Z,53.44
2018-08-25T00:19:04.778Z,53.65
2018-08-25T00:21:32.403Z,53.33
2018-08-25T00:24:00.050Z,53.47
2018-08-25T00:26:28.325Z,53.51
2018-08-25T00:28:55.947Z,54.01
2018-08-25T00:31:24.641Z,54.17
2018-08-25T00:33:54.250Z,53.54
2018-08-25T00:36:22.683Z,53.71
2018-08-25T00:38:50.483Z,54.13
2018-08-25T00:41:18.114Z,54.22
2018-08-25T00:43:46.130Z,54.24
2018-08-25T00:46:14.098Z,54.22
2018-08-25T00:48:42.115Z,53.72
2018-08-25T00:51:09.775Z,54.00
2018-08-25T00:53:37.449Z,54.35
2018-08-25T00:56:05.661Z,53.67
2018-08-25T00:58:33.565Z,53.64
2018-08-25T01:01:01.742Z,53.64
2018-08-25T01:03:29.932Z,53.63
2018-08-25T01:05:57.549Z,53.58
2018-08-25T01:08:25.650Z,53.68
2018-08-25T01:10:53.600Z,53.73
2018-08-25T01:13:21.546Z,54.21
2018-08-25T01:15:49.848Z,53.74
2018-08-25T01:18:17.776Z,54.18
2018-08-25T01:20:46.750Z,53.69
2018-08-25T01:23:14.400Z,54.34
2018-08-25T01:25:42.753Z,54.39
2018-08-25T01:28:10.938Z,54.40
2018-08-25T01:30:39.246Z,54.15
2018-08-25T01:33:07.147Z,54.36
2018-08-25T01:35:34.979Z,54.37
2018-08-25T01:38:03.267Z,54.51
2018-08-25T01:40:30.915Z,54.40
2018-08-25T01:42:59.302Z,54.36
2018-08-25T01:45:26.952Z,53.87
2018-08-25T01:47:54.965Z,53.76
2018-08-25T01:50:23.317Z,53.93
2018-08-25T01:52:50.969Z,53.92
2018-08-25T01:55:18.673Z,54.44
2018-08-25T01:57:46.605Z,54.64
2018-08-25T02:00:14.286Z,53.98
2018-08-25T02:02:42.316Z,54.55
2018-08-25T02:05:09.927Z,54.14
2018-08-25T02:07:37.580Z,54.19
2018-08-25T02:10:05.327Z,53.96
2018-08-25T02:12:33.324Z,54.59
2018-08-25T02:15:00.986Z,54.30
2018-08-25T02:17:29.187Z,54.63
2018-08-25T02:19:57.925Z,54.62
2018-08-25T02:22:25.605Z,53.97
2018-08-25T02:24:53.812Z,54.58
2018-08-25T02:27:21.879Z,54.32
2018-08-25T02:29:49.818Z,54.64
2018-08-25T02:32:18.057Z,54.63
2018-08-25T02:34:46.001Z,54.79
2018-08-25T02:37:13.650Z,54.72
2018-08-25T02:39:41.345Z,54.13
2018-08-25T02:42:09.057Z,54.03
2018-08-25T02:44:37.494Z,54.72
2018-08-25T02:47:05.200Z,54.59
2018-08-25T02:49:32.974Z,54.57
2018-08-25T02:52:00.614Z,54.12
2018-08-25T02:54:28.730Z,54.76
2018-08-25T02:56:56.360Z,54.15
2018-08-25T02:59:24.330Z,53.99
2018-08-25T03:01:51.984Z,54.10
2018-08-25T03:04:19.581Z,54.25
2018-08-25T03:06:47.660Z,54.25
2018-08-25T03:09:15.330Z,54.80
2018-08-25T03:12:46.322Z,54.76
2018-08-25T03:15:13.989Z,54.73
2018-08-25T03:17:41.679Z,54.72
2018-08-25T03:20:09.760Z,54.12
2018-08-25T03:22:37.485Z,54.71
2018-08-25T03:25:05.146Z,54.14
2018-08-25T03:27:32.822Z,54.55
2018-08-25T03:30:00.877Z,54.74
2018-08-25T03:32:28.893Z,54.85
2018-08-25T03:34:56.832Z,54.79
2018-08-25T03:37:24.491Z,54.46
2018-08-25T03:39:52.181Z,54.48
2018-08-25T03:42:19.816Z,54.08
2018-08-25T03:44:48.155Z,54.23
2018-08-25T03:47:16.051Z,54.14
2018-08-25T03:49:44.021Z,54.86
2018-08-25T03:52:12.536Z,54.85
2018-08-25T03:54:40.129Z,54.78
2018-08-25T03:57:07.768Z,54.75
2018-08-25T03:59:35.801Z,54.63
2018-08-25T04:02:03.462Z,54.08
2018-08-25T04:04:31.544Z,54.42
2018-08-25T04:06:59.498Z,54.05
2018-08-25T04:09:27.472Z,54.65
2018-08-25T04:11:56.004Z,54.12
2018-08-25T04:14:23.932Z,54.57
2018-08-25T04:16:51.592Z,54.09
2018-08-25T04:19:20.455Z,54.63
2018-08-25T04:21:48.588Z,54.74
2018-08-25T04:24:16.626Z,54.53
2018-08-25T04:26:44.274Z,54.04
2018-08-25T04:29:12.773Z,54.05
2018-08-25T04:31:40.745Z,54.06
2018-08-25T04:34:08.685Z,54.24
2018-08-25T04:36:36.326Z,53.92
2018-08-25T04:39:06.495Z,53.89
2018-08-25T04:41:34.226Z,53.82
2018-08-25T04:44:02.308Z,54.51
2018-08-25T04:46:30.212Z,54.48
2018-08-25T04:48:58.180Z,53.81
2018-08-25T04:51:26.013Z,54.56
2018-08-25T04:53:54.076Z,54.14
2018-08-25T04:56:21.755Z,53.77
2018-08-25T04:58:49.365Z,54.13
2018-08-25T05:01:17.370Z,54.33
2018-08-25T05:03:45.107Z,54.09
2018-08-25T05:06:12.765Z,53.49
2018-08-25T05:08:40.560Z,54.11
2018-08-25T05:11:08.770Z,53.55
2018-08-25T05:13:36.799Z,54.20
2018-08-25T05:16:04.440Z,53.54
2018-08-25T05:18:32.114Z,53.54
2018-08-25T05:21:00.299Z,54.09
2018-08-25T05:23:27.927Z,53.53
2018-08-25T05:25:55.960Z,53.44
2018-08-25T05:28:23.597Z,54.02
2018-08-25T05:30:51.653Z,53.44
2018-08-25T05:33:19.570Z,53.86
2018-08-25T05:35:47.505Z,54.03
2018-08-25T05:38:15.513Z,54.13
2018-08-25T05:40:43.437Z,53.36
2018-08-25T05:43:11.148Z,53.42
2018-08-25T05:45:39.093Z,54.08
2018-08-25T05:48:06.755Z,53.98
2018-08-25T05:50:34.797Z,53.89
2018-08-25T05:53:02.782Z,53.73
2018-08-25T05:55:30.769Z,53.49
2018-08-25T05:57:58.424Z,53.19
2018-08-25T06:00:26.165Z,53.55
2018-08-25T06:02:54.184Z,53.75
2018-08-25T06:05:22.192Z,53.23
2018-08-25T06:07:50.191Z,53.52
2018-08-25T06:10:19.007Z,52.89
2018-08-25T06:12:47.079Z,53.30
2018-08-25T06:15:14.734Z,52.71
2018-08-25T06:17:42.779Z,52.69
2018-08-25T06:20:10.432Z,52.52
2018-08-25T06:22:38.402Z,52.44
2018-08-25T06:25:06.810Z,53.28
2018-08-25T06:27:34.962Z,53.09
2018-08-25T06:30:02.933Z,52.46
2018-08-25T06:32:31.245Z,52.45
2018-08-25T06:34:58.902Z,52.54
2018-08-25T06:37:27.032Z,52.57
2018-08-25T06:39:55.004Z,52.83
2018-08-25T06:42:22.672Z,52.44
2018-08-25T06:44:50.700Z,52.94
2018-08-25T06:47:19.010Z,52.37
2018-08-25T06:49:46.969Z,52.51
2018-08-25T06:52:14.657Z,52.96
2018-08-25T06:54:42.333Z,52.74
2018-08-25T06:57:10.626Z,52.41
2018-08-25T06:59:38.759Z,52.87
2018-08-25T07:02:06.728Z,52.46
2018-08-25T07:04:34.713Z,52.93
2018-08-25T07:07:03.068Z,53.02
2018-08-25T07:09:31.041Z,52.48
2018-08-25T07:11:58.665Z,52.40
2018-08-25T07:14:26.334Z,52.51
2018-08-25T07:16:54.611Z,53.08
2018-08-25T07:19:22.254Z,52.46
2018-08-25T07:21:49.883Z,52.53
2018-08-25T07:24:18.205Z,52.50
2018-08-25T07:26:46.189Z,52.47
2018-08-25T07:29:14.408Z,52.55
2018-08-25T07:31:42.399Z,53.11
2018-08-25T07:34:10.026Z,52.66
2018-08-25T07:36:37.839Z,52.37
2018-08-25T07:39:08.097Z,52.42
2018-08-25T07:41:36.122Z,52.15
2018-08-25T07:44:03.821Z,52.10
2018-08-25T07:46:31.785Z,52.86
2018-08-25T07:48:59.999Z,52.08
2018-08-25T07:51:27.650Z,52.14
2018-08-25T07:53:55.322Z,52.38
2018-08-25T07:56:22.947Z,52.36
2018-08-25T07:58:50.576Z,52.01
2018-08-25T08:01:18.655Z,52.66
2018-08-25T08:03:46.609Z,52.05
2018-08-25T08:06:14.264Z,51.96
2018-08-25T08:08:42.342Z,52.42
2018-08-25T08:11:10.271Z,51.77
2018-08-25T08:13:37.893Z,51.64
2018-08-25T08:16:06.164Z,52.16
2018-08-25T08:18:34.065Z,51.99
2018-08-25T08:21:01.728Z,52.32
2018-08-25T08:23:29.694Z,51.71
2018-08-25T08:25:57.300Z,51.68
2018-08-25T08:28:24.905Z,51.65
2018-08-25T08:30:52.842Z,52.08
2018-08-25T08:33:20.864Z,51.99
2018-08-25T08:35:49.071Z,51.92
2018-08-25T08:38:17.173Z,51.74
2018-08-25T08:40:44.945Z,51.92
2018-08-25T08:43:12.597Z,51.91
2018-08-25T08:45:40.303Z,51.25
2018-08-25T08:48:08.342Z,52.11
2018-08-25T08:50:36.405Z,52.00
2018-08-25T08:53:04.049Z,51.44
2018-08-25T08:55:32.095Z,51.41
2018-08-25T08:58:00.041Z,52.05
2018-08-25T09:00:28.016Z,51.48
2018-08-25T09:02:56.123Z,52.07
2018-08-25T09:05:24.123Z,51.50
2018-08-25T09:07:51.777Z,52.19
2018-08-25T09:10:19.688Z,51.60
2018-08-25T09:12:47.601Z,51.92
2018-08-25T09:15:15.921Z,52.15
2018-08-25T09:17:43.645Z,52.26
2018-08-25T09:20:11.600Z,52.42
2018-08-25T09:22:39.234Z,52.31
2018-08-25T09:25:06.853Z,51.52
2018-08-25T09:27:34.556Z,51.74
2018-08-25T09:30:02.573Z,51.47
2018-08-25T09:32:30.502Z,52.20
2018-08-25T09:34:58.216Z,51.88
2018-08-25T09:37:26.123Z,51.68
2018-08-25T09:39:53.737Z,52.03
2018-08-25T09:42:22.150Z,52.13
2018-08-25T09:44:49.818Z,51.63
2018-08-25T09:47:17.712Z,52.36
2018-08-25T09:49:45.372Z,52.29
2018-08-25T09:52:13.903Z,52.40
2018-08-25T09:54:43.863Z,52.30
2018-08-25T09:57:11.526Z,52.45
2018-08-25T09:59:39.494Z,52.41
2018-08-25T10:02:07.643Z,52.33
2018-08-25T10:04:35.369Z,51.67
2018-08-25T10:07:03.173Z,52.17
2018-08-25T10:09:31.141Z,51.68
2018-08-25T10:11:59.334Z,51.60
2018-08-25T10:14:26.995Z,52.28
2018-08-25T10:16:55.595Z,51.60
2018-08-25T10:19:23.535Z,52.06
2018-08-25T10:21:51.646Z,51.77
2018-08-25T10:24:19.606Z,51.73
2018-08-25T10:26:47.244Z,52.42
2018-08-25T10:29:15.251Z,52.40
2018-08-25T10:31:42.953Z,51.89
2018-08-25T10:34:10.831Z,52.55
2018-08-25T10:36:38.500Z,51.88
2018-08-25T10:39:09.333Z,51.76
2018-08-25T10:41:37.373Z,51.81
2018-08-25T10:44:05.892Z,52.40
2018-08-25T10:46:34.092Z,51.81
2018-08-25T10:49:01.754Z,52.42
2018-08-25T10:51:30.076Z,51.73
2018-08-25T10:53:58.352Z,52.38
2018-08-25T10:56:25.931Z,52.27
2018-08-25T10:58:54.198Z,52.12
2018-08-25T11:01:21.849Z,51.45
2018-08-25T11:03:49.538Z,51.79
2018-08-25T11:06:17.329Z,51.81
2018-08-25T11:08:45.343Z,52.09
2018-08-25T11:11:12.979Z,52.05
2018-08-25T11:13:40.687Z,52.05
2018-08-25T11:16:08.352Z,52.06
2018-08-25T11:18:36.626Z,52.17
2018-08-25T11:21:04.369Z,52.14
2018-08-25T11:23:33.596Z,52.19
2018-08-25T11:26:01.225Z,52.11
2018-08-25T11:28:29.213Z,51.56
2018-08-25T11:30:57.542Z,52.07
2018-08-25T11:33:25.665Z,52.26
2018-08-25T11:35:53.546Z,51.64
2018-08-25T11:38:21.912Z,52.21
2018-08-25T11:40:49.836Z,52.05
2018-08-25T11:43:17.745Z,51.44
2018-08-25T11:45:46.064Z,51.42
2018-08-25T11:48:13.997Z,51.59
2018-08-25T11:50:41.962Z,51.68
2018-08-25T11:53:09.969Z,52.30
2018-08-25T11:55:37.974Z,51.52
2018-08-25T11:58:05.609Z,51.78
2018-08-25T12:00:33.930Z,51.73
2018-08-25T12:03:03.833Z,52.25
2018-08-25T12:05:30.602Z,51.96
2018-08-25T12:07:58.990Z,52.03
2018-08-25T12:10:26.705Z,51.64
2018-08-25T12:12:54.742Z,51.03
2018-08-25T12:15:22.377Z,51.62
2018-08-25T12:17:50.338Z,51.68
2018-08-25T12:20:18.003Z,51.69
2018-08-25T12:22:45.642Z,50.94
2018-08-25T12:25:13.282Z,51.50
2018-08-25T12:27:40.949Z,50.93
2018-08-25T12:30:08.707Z,51.63
2018-08-25T12:32:36.760Z,51.16
2018-08-25T12:35:04.833Z,51.77
2018-08-25T12:37:32.453Z,51.76
2018-08-25T12:40:00.278Z,51.27
2018-08-25T12:42:27.920Z,51.25
2018-08-25T12:44:55.598Z,51.20
2018-08-25T12:47:25.333Z,51.77
2018-08-25T12:49:54.449Z,51.50
2018-08-25T12:52:22.089Z,51.23
2018-08-25T12:54:49.730Z,51.50
2018-08-25T12:57:18.506Z,51.08
2018-08-25T12:59:46.501Z,51.72
2018-08-25T13:02:14.127Z,51.17
2018-08-25T13:04:42.682Z,51.87
2018-08-25T13:07:11.070Z,51.74
2018-08-25T13:09:38.985Z,51.58
2018-08-25T13:12:06.696Z,50.82
2018-08-25T13:14:34.343Z,51.03
2018-08-25T13:17:02.102Z,51.44
2018-08-25T13:19:30.701Z,51.65
2018-08-25T13:21:58.754Z,51.45
2018-08-25T13:24:26.705Z,51.14
2018-08-25T13:26:54.660Z,51.78
2018-08-25T13:29:22.302Z,51.94
2018-08-25T13:31:50.222Z,52.16
2018-08-25T13:34:18.229Z,51.51
2018-08-25T13:36:45.831Z,51.77
2018-08-25T13:39:13.509Z,52.33
2018-08-25T13:41:42.061Z,51.86
2018-08-25T13:44:16.559Z,51.85
2018-08-25T13:46:44.150Z,51.62
2018-08-25T13:49:12.478Z,51.53
2018-08-25T13:51:40.211Z,51.50
2018-08-25T13:54:08.574Z,51.52
2018-08-25T13:56:36.504Z,50.96
2018-08-25T13:59:04.478Z,51.23
2018-08-25T14:01:32.122Z,50.96
2018-08-25T14:04:00.278Z,50.88
2018-08-25T14:06:27.981Z,50.21
2018-08-25T14:08:55.969Z,50.03
2018-08-25T14:11:23.602Z,49.78
2018-08-25T14:13:51.470Z,49.78
2018-08-25T14:16:19.194Z,50.03
2018-08-25T14:18:46.798Z,49.03
2018-08-25T14:21:14.731Z,46.17
2018-08-25T14:23:42.630Z,46.29
2018-08-25T14:26:11.139Z,47.83
2018-08-25T14:28:38.741Z,47.49
2018-08-25T14:31:06.635Z,46.57
2018-08-25T14:33:34.646Z,46.10
2018-08-25T14:36:02.549Z,45.77
2018-08-25T14:38:30.774Z,44.45
2018-08-25T14:40:58.691Z,46.06
2018-08-25T14:43:26.368Z,46.22
2018-08-25T14:45:54.018Z,46.43
2018-08-25T14:48:21.653Z,47.96
2018-08-25T14:50:49.636Z,49.21
2018-08-25T14:53:17.548Z,49.25
2018-08-25T14:55:45.553Z,49.47
2018-08-25T14:58:13.823Z,49.84
2018-08-25T15:00:41.506Z,50.46
2018-08-25T15:03:09.696Z,49.91
2018-08-25T15:05:37.386Z,50.18
2018-08-25T15:08:05.054Z,50.18
2018-08-25T15:10:33.213Z,50.82
2018-08-25T15:13:01.184Z,50.77
2018-08-25T15:15:29.066Z,49.77
2018-08-25T15:17:57.922Z,48.62
2018-08-25T15:20:25.885Z,48.33
2018-08-25T15:22:53.621Z,44.85
2018-08-25T15:25:21.549Z,43.21
2018-08-25T15:27:49.533Z,43.07
2018-08-25T15:30:17.579Z,42.08
2018-08-25T15:32:45.182Z,40.85
2018-08-25T15:35:12.790Z,42.19
2018-08-25T15:37:40.750Z,43.42
2018-08-25T15:40:08.363Z,45.00
2018-08-25T15:42:36.535Z,45.75
2018-08-25T15:45:04.464Z,44.73
2018-08-25T15:47:32.120Z,45.03
2018-08-25T15:50:00.074Z,46.15
2018-08-25T15:52:27.798Z,46.06
2018-08-25T15:54:55.942Z,46.49
2018-08-25T15:57:23.593Z,47.95
2018-08-25T15:59:51.313Z,48.42
2018-08-25T16:02:18.962Z,48.06
2018-08-25T16:04:46.610Z,47.89
2018-08-25T16:07:14.537Z,48.22
2018-08-25T16:09:43.392Z,49.26
2018-08-25T16:12:11.169Z,48.81
2018-08-25T16:14:39.270Z,48.63
2018-08-25T16:17:06.905Z,48.53
2018-08-25T16:19:34.843Z,49.19
2018-08-25T16:22:03.198Z,48.61
2018-08-25T16:24:31.100Z,48.93
2018-08-25T16:26:58.733Z,48.72
2018-08-25T16:29:26.629Z,49.27
2018-08-25T16:31:54.280Z,49.76
2018-08-25T16:34:22.274Z,49.79
2018-08-25T16:36:50.157Z,49.98
2018-08-25T16:39:18.410Z,50.21
2018-08-25T16:41:46.111Z,49.51
2018-08-25T16:44:13.720Z,50.25
2018-08-25T16:46:41.457Z,49.74
2018-08-25T16:49:09.197Z,49.51
2018-08-25T16:51:37.357Z,50.44
2018-08-25T16:54:05.368Z,49.76
2018-08-25T16:56:33.295Z,49.78
2018-08-25T16:59:01.269Z,50.42
2018-08-25T17:01:29.254Z,50.09
2018-08-25T17:03:57.221Z,50.11
2018-08-25T17:06:25.184Z,50.83
2018-08-25T17:08:52.853Z,51.16
2018-08-25T17:11:20.826Z,50.50
2018-08-25T17:13:48.486Z,50.64
2018-08-25T17:16:16.753Z,50.99
2018-08-25T17:18:44.751Z,50.70
2018-08-25T17:21:12.487Z,50.66
2018-08-25T17:23:40.147Z,50.63
2018-08-25T17:26:07.814Z,50.64
2018-08-25T17:28:35.858Z,51.37
2018-08-25T17:31:03.839Z,51.37
2018-08-25T17:33:31.484Z,50.77
2018-08-25T17:35:59.203Z,51.10
2018-08-25T17:38:26.837Z,50.94
2018-08-25T17:40:54.541Z,51.36
2018-08-25T17:43:22.234Z,51.75
2018-08-25T17:45:49.905Z,51.01
2018-08-25T17:48:17.911Z,51.17
2018-08-25T17:50:45.569Z,52.00
2018-08-25T17:53:13.484Z,52.05
2018-08-25T17:55:41.517Z,52.08
2018-08-25T17:58:09.435Z,51.38
2018-08-25T18:00:37.105Z,51.37
2018-08-25T18:03:05.100Z,52.25
2018-08-25T18:05:33.181Z,51.59
2018-08-25T18:08:01.333Z,51.98
2018-08-25T18:10:28.988Z,51.64
2018-08-25T18:12:57.008Z,52.16
2018-08-25T18:15:24.964Z,51.86
2018-08-25T18:17:52.627Z,51.74
2018-08-25T18:20:20.969Z,52.46
2018-08-25T18:22:48.616Z,51.83
2018-08-25T18:25:16.257Z,52.17
2018-08-25T18:27:44.159Z,52.01
2018-08-25T18:30:11.896Z,52.12
2018-08-25T18:32:40.587Z,52.70
2018-08-25T18:35:08.274Z,52.50
2018-08-25T18:37:36.188Z,52.04
2018-08-25T18:40:03.897Z,52.10
2018-08-25T18:42:32.090Z,52.24
2018-08-25T18:45:00.085Z,52.37
2018-08-25T18:47:28.079Z,52.10
2018-08-25T18:49:55.895Z,52.58
2018-08-25T18:52:23.875Z,52.62
2018-08-25T18:54:51.594Z,52.21
2018-08-25T18:57:19.761Z,52.24
2018-08-25T18:59:47.421Z,52.92
2018-08-25T19:02:15.200Z,52.28
2018-08-25T19:04:42.806Z,52.88
2018-08-25T19:07:10.842Z,52.29
2018-08-25T19:09:38.570Z,53.05
2018-08-25T19:12:07.096Z,52.47
2018-08-25T19:14:35.010Z,53.21
2018-08-25T19:17:02.933Z,52.44
2018-08-25T19:19:30.868Z,52.86
2018-08-25T19:21:58.573Z,53.06
2018-08-25T19:24:26.934Z,52.66
2018-08-25T19:26:54.797Z,53.10
2018-08-25T19:29:22.741Z,52.54
2018-08-25T19:31:50.417Z,53.05
2018-08-25T19:34:18.319Z,53.15
2018-08-25T19:36:45.984Z,52.72
2018-08-25T19:39:14.232Z,53.45
2018-08-25T19:41:42.066Z,52.98
2018-08-25T19:44:10.275Z,53.31
2018-08-25T19:46:38.157Z,53.27
2018-08-25T19:49:06.105Z,53.45
2018-08-25T19:51:33.786Z,52.81
2018-08-25T19:54:01.719Z,53.32
2018-08-25T19:56:29.644Z,53.39
2018-08-25T19:58:57.339Z,53.44
2018-08-25T20:01:25.285Z,53.02
2018-08-25T20:03:52.960Z,53.46
2018-08-25T20:06:20.889Z,53.43
2018-08-25T20:08:48.534Z,53.78
2018-08-25T20:11:16.185Z,52.90
2018-08-25T20:13:44.227Z,52.94
2018-08-25T20:16:12.174Z,53.51
2018-08-25T20:18:39.785Z,53.15
2018-08-25T20:21:07.550Z,53.52
2018-08-25T20:23:35.413Z,53.89
2018-08-25T20:26:03.600Z,53.37
2018-08-25T20:28:31.465Z,53.04
2018-08-25T20:30:59.109Z,52.96
2018-08-25T20:33:27.008Z,52.91
2018-08-25T20:35:55.339Z,53.32
2018-08-25T20:38:23.441Z,52.91
2018-08-25T20:40:51.615Z,52.95
2018-08-25T20:43:19.287Z,53.48
2018-08-25T20:45:47.301Z,53.30
2018-08-25T20:48:15.184Z,53.00
2018-08-25T20:50:43.020Z,53.16
2018-08-25T20:53:10.622Z,53.07
2018-08-25T20:55:38.913Z,53.47
2018-08-25T20:58:06.583Z,53.58
2018-08-25T21:00:34.215Z,53.10
2018-08-25T21:03:01.919Z,53.71
2018-08-25T21:05:29.605Z,53.35
2018-08-25T21:07:57.309Z,53.26
2018-08-25T21:10:24.986Z,53.13
2018-08-25T21:12:52.941Z,53.71
2018-08-25T21:15:20.620Z,53.21
2018-08-25T21:17:49.146Z,53.84
2018-08-25T21:20:17.610Z,53.09
2018-08-25T21:22:45.289Z,53.13
2018-08-25T21:25:13.117Z,53.29
2018-08-25T21:27:41.340Z,53.55
2018-08-25T21:30:09.750Z,53.19
2018-08-25T21:32:37.467Z,53.88
2018-08-25T21:35:06.434Z,53.19
2018-08-25T21:37:34.164Z,53.32
2018-08-25T21:40:02.069Z,53.20
2018-08-25T21:42:30.081Z,53.62
2018-08-25T21:44:58.390Z,53.89
2018-08-25T21:47:26.138Z,53.86
2018-08-25T21:49:54.032Z,53.77
2018-08-25T21:52:21.973Z,53.22
2018-08-25T21:54:49.964Z,53.84
2018-08-25T21:57:17.630Z,53.91
2018-08-25T21:59:45.245Z,53.38
2018-08-25T22:02:17.562Z,53.31
2018-08-25T22:04:45.726Z,53.22
2018-08-25T22:07:13.603Z,53.29
2018-08-25T22:09:42.250Z,53.19
2018-08-25T22:12:09.869Z,53.65
2018-08-25T22:14:37.673Z,53.90
2018-08-25T22:17:06.620Z,53.86
2018-08-25T22:19:34.513Z,53.17
2018-08-25T22:22:02.636Z,53.79
2018-08-25T22:24:30.454Z,53.91
2018-08-25T22:26:58.583Z,53.23
2018-08-25T22:29:26.496Z,53.36
2018-08-25T22:31:54.129Z,53.30
2018-08-25T22:34:21.785Z,53.84
2018-08-25T22:36:49.529Z,53.48
2018-08-25T22:39:17.496Z,53.96
2018-08-25T22:41:45.408Z,53.39
2018-08-25T22:44:13.568Z,53.82
2018-08-25T22:46:41.748Z,53.39
2018-08-25T22:49:09.451Z,53.35
2018-08-25T22:51:37.662Z,53.35
2018-08-25T22:54:05.358Z,53.32
2018-08-25T22:56:33.325Z,53.39
2018-08-25T22:59:00.969Z,53.34
2018-08-25T23:01:28.631Z,53.96
2018-08-25T23:03:56.255Z,54.08
2018-08-25T23:06:23.877Z,54.07
2018-08-25T23:08:51.822Z,54.05
2018-08-25T23:11:19.494Z,53.32
2018-08-25T23:13:47.457Z,53.76
2018-08-25T23:16:15.125Z,54.16
2018-08-25T23:18:43.048Z,54.12
2018-08-25T23:21:10.776Z,54.05
2018-08-25T23:23:38.393Z,53.46
2018-08-25T23:26:06.249Z,53.58
2018-08-25T23:28:33.901Z,53.52
2018-08-25T23:31:01.777Z,53.54
2018-08-25T23:33:29.796Z,53.93
2018-08-25T23:35:57.443Z,53.88
2018-08-25T23:38:25.073Z,54.14
2018-08-25T23:40:52.710Z,53.48
2018-08-25T23:43:20.703Z,54.24
2018-08-25T23:45:48.369Z,53.45
2018-08-25T23:48:16.271Z,53.51
2018-08-25T23:50:44.513Z,54.29
2018-08-25T23:53:12.395Z,54.22
2018-08-25T23:55:40.222Z,53.38
2018-08-25T23:58:08.300Z,54.10
